createdAt,value
2022-12-31T00:01:37.509Z,8.80
2022-12-31T00:04:04.754Z,2.25
2022-12-31T00:06:33.632Z,5.47
2022-12-31T00:09:06.125Z,3.85
2022-12-31T00:11:33.978Z,2.88
2022-12-31T00:14:01.833Z,6.32
2022-12-31T00:16:32.995Z,4.88
2022-12-31T00:21:29.405Z,4.00
2022-12-31T00:23:57.088Z,1.75
2022-12-31T00:26:25.523Z,5.30
2022-12-31T00:28:53.724Z,6.65
2022-12-31T00:31:24.416Z,6.05
2022-12-31T00:33:51.993Z,6.53
2022-12-31T00:36:30.038Z,7.03
2022-12-31T00:38:58.773Z,4.80
2022-12-31T00:41:26.457Z,3.40
2022-12-31T00:43:56.837Z,11.88
2022-12-31T00:46:25.057Z,3.60
2022-12-31T00:48:52.466Z,3.92
2022-12-31T00:51:21.816Z,7.35
2022-12-31T00:53:49.634Z,8.52
2022-12-31T00:56:18.008Z,7.70
2022-12-31T00:58:48.174Z,5.63
2022-12-31T01:01:15.366Z,6.82
2022-12-31T01:03:44.292Z,4.38
2022-12-31T01:06:11.590Z,4.88
2022-12-31T01:08:40.433Z,2.15
2022-12-31T01:11:19.960Z,4.80
2022-12-31T01:13:48.949Z,4.47
2022-12-31T01:16:16.930Z,4.57
2022-12-31T01:18:44.290Z,7.20
2022-12-31T01:21:15.382Z,3.90
2022-12-31T01:23:43.206Z,8.13
2022-12-31T01:26:11.491Z,3.38
2022-12-31T01:28:38.732Z,4.80
2022-12-31T01:31:07.397Z,5.15
2022-12-31T01:33:35.237Z,3.40
2022-12-31T01:36:06.572Z,1.60
2022-12-31T01:38:35.835Z,4.63
2022-12-31T01:41:03.230Z,5.07
2022-12-31T01:43:49.035Z,7.50
2022-12-31T01:46:22.489Z,7.75
2022-12-31T01:48:54.306Z,2.22
2022-12-31T01:51:22.403Z,2.95
2022-12-31T01:53:50.779Z,7.57
2022-12-31T01:56:19.092Z,1.00
2022-12-31T01:58:49.090Z,4.25
2022-12-31T02:01:21.691Z,2.10
2022-12-31T02:03:48.976Z,5.18
2022-12-31T02:06:21.451Z,6.00
2022-12-31T02:08:50.239Z,8.90
2022-12-31T02:11:31.259Z,8.20
2022-12-31T02:14:00.885Z,3.25
2022-12-31T02:16:50.597Z,10.45
2022-12-31T02:19:48.953Z,5.50
2022-12-31T02:22:16.423Z,5.78
2022-12-31T02:24:56.780Z,5.05
2022-12-31T02:27:23.966Z,9.82
2022-12-31T02:30:22.319Z,6.97
2022-12-31T02:32:49.643Z,2.72
2022-12-31T02:35:25.721Z,2.60
2022-12-31T02:37:59.478Z,8.90
2022-12-31T02:40:26.899Z,11.77
2022-12-31T02:42:55.681Z,9.68
2022-12-31T02:45:28.238Z,6.50
2022-12-31T02:48:04.273Z,5.70
2022-12-31T02:50:31.564Z,2.03
2022-12-31T02:52:59.115Z,5.43
2022-12-31T02:55:32.817Z,4.97
2022-12-31T02:58:12.339Z,6.22
2022-12-31T03:01:28.073Z,8.63
2022-12-31T03:04:15.287Z,5.13
2022-12-31T03:06:42.925Z,7.97
2022-12-31T03:09:17.534Z,4.05
2022-12-31T03:12:03.295Z,7.70
2022-12-31T03:14:32.706Z,10.27
2022-12-31T03:17:01.913Z,3.85
2022-12-31T03:19:48.200Z,12.43
2022-12-31T03:22:27.732Z,5.07
2022-12-31T03:25:21.118Z,9.63
2022-12-31T03:27:48.484Z,23.52
2022-12-31T03:30:17.001Z,3.85
2022-12-31T03:32:45.071Z,9.23
2022-12-31T03:35:12.916Z,5.35
2022-12-31T03:37:40.774Z,6.88
2022-12-31T03:40:09.045Z,7.82
2022-12-31T03:42:36.287Z,5.78
2022-12-31T03:45:03.665Z,7.00
2022-12-31T03:47:30.976Z,9.50
2022-12-31T03:49:58.281Z,9.00
2022-12-31T03:52:31.260Z,6.97
2022-12-31T03:54:58.585Z,6.38
2022-12-31T03:57:25.977Z,11.98
2022-12-31T03:59:53.305Z,10.43
2022-12-31T04:02:26.335Z,9.63
2022-12-31T04:04:56.193Z,11.95
2022-12-31T04:07:24.774Z,14.00
2022-12-31T04:09:54.600Z,17.88
2022-12-31T04:12:21.695Z,15.18
2022-12-31T04:14:48.882Z,18.98
2022-12-31T04:17:16.299Z,18.77
2022-12-31T04:19:43.544Z,18.60
2022-12-31T04:22:11.041Z,14.13
2022-12-31T04:24:39.263Z,8.88
2022-12-31T04:27:07.992Z,6.03
2022-12-31T04:29:35.719Z,7.20
2022-12-31T04:32:03.814Z,6.13
2022-12-31T04:34:32.072Z,2.72
2022-12-31T04:36:59.474Z,4.45
2022-12-31T04:39:26.678Z,3.28
2022-12-31T04:41:54.382Z,2.42
2022-12-31T04:44:21.693Z,1.60
2022-12-31T04:46:49.100Z,3.80
2022-12-31T04:49:16.267Z,3.15
2022-12-31T04:51:43.551Z,3.80
2022-12-31T04:54:10.911Z,5.88
2022-12-31T04:56:39.257Z,6.18
2022-12-31T04:59:07.421Z,10.30
2022-12-31T05:01:36.729Z,3.95
2022-12-31T05:04:04.118Z,4.43
2022-12-31T05:06:31.277Z,6.30
2022-12-31T05:08:58.454Z,7.20
2022-12-31T05:11:25.557Z,10.02
2022-12-31T05:13:52.880Z,7.70
2022-12-31T05:16:20.098Z,11.48
2022-12-31T05:18:47.624Z,10.30
2022-12-31T05:21:20.422Z,11.10
2022-12-31T05:23:47.785Z,11.55
2022-12-31T05:26:15.402Z,5.07
2022-12-31T05:28:42.610Z,14.93
2022-12-31T05:31:09.825Z,7.38
2022-12-31T05:33:37.718Z,15.10
2022-12-31T05:36:05.025Z,13.38
2022-12-31T05:38:32.293Z,16.80
2022-12-31T05:41:00.257Z,13.40
2022-12-31T05:43:27.787Z,13.25
2022-12-31T05:45:55.160Z,15.27
2022-12-31T05:48:22.340Z,16.40
2022-12-31T05:50:50.328Z,19.35
2022-12-31T05:53:17.669Z,24.05
2022-12-31T05:55:46.240Z,24.08
2022-12-31T05:58:13.476Z,15.13
2022-12-31T06:00:43.149Z,11.70
2022-12-31T06:03:10.402Z,10.95
2022-12-31T06:05:40.506Z,4.93
2022-12-31T06:08:07.648Z,7.00
2022-12-31T06:10:35.116Z,7.95
2022-12-31T06:13:02.534Z,7.53
2022-12-31T06:15:29.858Z,4.72
2022-12-31T06:18:00.201Z,8.93
2022-12-31T06:20:27.449Z,4.63
2022-12-31T06:22:54.635Z,7.50
2022-12-31T06:25:21.965Z,5.43
2022-12-31T06:27:49.448Z,3.78
2022-12-31T06:30:16.680Z,4.93
2022-12-31T06:32:44.707Z,2.08
2022-12-31T06:35:11.957Z,1.70
2022-12-31T06:37:39.530Z,1.77
2022-12-31T06:40:07.274Z,4.47
2022-12-31T06:42:34.412Z,1.23
2022-12-31T06:45:02.684Z,0.98
2022-12-31T06:47:29.819Z,2.17
2022-12-31T06:49:57.145Z,0.52
2022-12-31T06:52:24.433Z,0.88
2022-12-31T06:54:51.900Z,1.05
2022-12-31T06:57:19.240Z,2.30
2022-12-31T06:59:46.742Z,1.75
2022-12-31T07:02:19.796Z,3.10
2022-12-31T07:04:49.803Z,5.57
2022-12-31T07:07:41.019Z,5.38
2022-12-31T07:10:15.130Z,4.90
2022-12-31T07:12:42.261Z,5.28
2022-12-31T07:15:14.798Z,10.98
2022-12-31T07:18:11.707Z,7.55
2022-12-31T07:20:38.910Z,10.20
2022-12-31T07:23:08.363Z,4.13
2022-12-31T07:25:37.561Z,0.68
2022-12-31T07:28:04.713Z,1.92
2022-12-31T07:30:35.841Z,3.15
2022-12-31T07:33:09.086Z,1.17
2022-12-31T07:35:55.330Z,1.60
2022-12-31T07:38:32.756Z,3.97
2022-12-31T07:41:02.704Z,2.55
2022-12-31T07:43:35.660Z,2.30
2022-12-31T07:46:22.406Z,4.45
2022-12-31T07:48:49.823Z,2.58
2022-12-31T07:51:17.236Z,0.47
2022-12-31T07:53:46.669Z,5.72
2022-12-31T07:56:14.177Z,1.50
2022-12-31T07:58:42.731Z,6.88
2022-12-31T08:01:17.143Z,2.95
2022-12-31T08:04:05.745Z,3.33
2022-12-31T08:06:48.713Z,2.03
2022-12-31T08:09:35.731Z,4.95
2022-12-31T08:12:04.014Z,3.60
2022-12-31T08:14:37.631Z,0.73
2022-12-31T08:17:05.255Z,3.05
2022-12-31T08:19:33.225Z,6.55
2022-12-31T08:22:19.537Z,8.65
2022-12-31T08:24:59.685Z,8.77
2022-12-31T08:27:26.955Z,5.95
2022-12-31T08:29:56.922Z,5.70
2022-12-31T08:32:32.621Z,5.78
2022-12-31T08:34:59.712Z,5.13
2022-12-31T08:37:37.341Z,7.07
2022-12-31T08:40:04.455Z,6.13
2022-12-31T08:42:46.123Z,4.82
2022-12-31T08:45:13.366Z,5.78
2022-12-31T08:47:46.831Z,4.07
2022-12-31T08:50:15.470Z,8.25
2022-12-31T08:52:42.978Z,8.48
2022-12-31T08:55:13.988Z,5.35
2022-12-31T08:58:02.129Z,6.03
2022-12-31T09:00:30.833Z,8.50
2022-12-31T09:03:13.126Z,7.53
2022-12-31T09:05:40.338Z,7.57
2022-12-31T09:08:07.771Z,4.38
2022-12-31T09:10:39.801Z,5.70
2022-12-31T09:13:09.840Z,5.50
2022-12-31T09:15:54.100Z,2.67
2022-12-31T09:18:21.605Z,8.45
2022-12-31T09:20:48.970Z,5.25
2022-12-31T09:23:23.289Z,3.03
2022-12-31T09:26:00.585Z,3.00
2022-12-31T09:28:29.898Z,4.10
2022-12-31T09:31:01.276Z,4.47
2022-12-31T09:33:40.870Z,2.78
2022-12-31T09:36:08.955Z,5.10
2022-12-31T09:38:42.268Z,7.32
2022-12-31T09:41:17.202Z,5.53
2022-12-31T09:43:46.620Z,6.03
2022-12-31T09:46:20.690Z,4.13
2022-12-31T09:48:51.235Z,5.30
2022-12-31T09:51:25.224Z,4.57
2022-12-31T09:53:59.131Z,6.00
2022-12-31T09:56:38.461Z,5.55
2022-12-31T09:59:18.573Z,2.90
2022-12-31T10:01:46.852Z,1.80
2022-12-31T10:04:35.903Z,4.93
2022-12-31T10:07:21.440Z,2.13
2022-12-31T10:10:01.536Z,3.60
2022-12-31T10:12:47.424Z,4.95
2022-12-31T10:15:20.458Z,2.10
2022-12-31T10:17:54.518Z,3.47
2022-12-31T10:20:33.744Z,4.43
2022-12-31T10:23:18.270Z,6.65
2022-12-31T10:25:53.940Z,2.80
2022-12-31T10:28:36.365Z,4.05
2022-12-31T10:31:14.738Z,2.78
2022-12-31T10:33:42.181Z,2.45
2022-12-31T10:36:16.335Z,4.57
2022-12-31T10:39:07.450Z,3.15
2022-12-31T10:41:39.154Z,8.70
2022-12-31T10:44:26.428Z,5.07
2022-12-31T10:47:12.148Z,6.32
2022-12-31T10:49:51.636Z,8.10
2022-12-31T10:52:41.972Z,1.88
2022-12-31T10:55:30.395Z,10.77
2022-12-31T10:58:07.040Z,7.53
2022-12-31T11:00:57.580Z,6.80
2022-12-31T11:03:43.397Z,5.97
2022-12-31T11:06:35.313Z,3.83
2022-12-31T11:09:09.710Z,13.55
2022-12-31T11:11:38.896Z,4.90
2022-12-31T11:14:23.086Z,7.03
2022-12-31T11:17:03.331Z,4.20
2022-12-31T11:19:50.186Z,3.25
2022-12-31T11:22:20.789Z,5.20
2022-12-31T11:24:49.046Z,9.98
2022-12-31T11:27:31.993Z,7.70
2022-12-31T11:29:59.202Z,6.45
2022-12-31T11:32:30.211Z,5.43
2022-12-31T11:35:07.455Z,6.63
2022-12-31T11:37:34.804Z,6.15
2022-12-31T11:40:15.849Z,11.13
2022-12-31T11:42:51.811Z,10.45
2022-12-31T11:45:37.642Z,4.22
2022-12-31T11:51:03.388Z,6.78
2022-12-31T11:53:43.872Z,7.20
2022-12-31T11:56:10.992Z,6.97
2022-12-31T11:58:43.034Z,4.65
2022-12-31T12:01:12.796Z,9.68
2022-12-31T12:03:43.632Z,8.02
2022-12-31T12:06:15.007Z,4.18
2022-12-31T12:08:43.756Z,5.97
2022-12-31T12:11:22.402Z,12.18
2022-12-31T12:13:50.640Z,6.63
2022-12-31T12:16:20.314Z,6.10
2022-12-31T12:18:51.967Z,8.90
2022-12-31T12:21:23.163Z,5.10
2022-12-31T12:26:30.648Z,6.55
2022-12-31T12:29:00.115Z,6.20
2022-12-31T12:31:27.493Z,5.57
2022-12-31T12:33:55.001Z,8.65
2022-12-31T12:36:22.616Z,4.82
2022-12-31T12:39:00.672Z,6.95
2022-12-31T12:41:28.007Z,6.53
2022-12-31T12:44:06.064Z,4.32
2022-12-31T12:46:54.256Z,14.02
2022-12-31T12:49:23.803Z,4.57
2022-12-31T12:52:06.481Z,5.60
2022-12-31T12:54:52.657Z,3.90
2022-12-31T12:57:30.443Z,7.20
2022-12-31T13:00:17.835Z,4.40
2022-12-31T13:02:57.737Z,7.05
2022-12-31T13:05:43.903Z,5.68
2022-12-31T13:08:12.025Z,4.60
2022-12-31T13:10:58.400Z,4.47
2022-12-31T13:13:31.292Z,4.18
2022-12-31T13:16:06.884Z,7.85
2022-12-31T13:18:34.050Z,2.97
2022-12-31T13:21:01.213Z,3.70
2022-12-31T13:23:39.941Z,7.15
2022-12-31T13:26:07.270Z,6.57
2022-12-31T13:28:35.077Z,3.45
2022-12-31T13:31:08.635Z,6.68
2022-12-31T13:33:42.139Z,10.98
2022-12-31T13:36:10.947Z,5.28
2022-12-31T13:38:46.627Z,4.30
2022-12-31T13:41:13.706Z,7.35
2022-12-31T13:43:50.989Z,6.85
2022-12-31T13:46:27.317Z,6.75
2022-12-31T13:48:54.627Z,5.15
2022-12-31T13:51:25.011Z,3.85
2022-12-31T13:53:55.631Z,9.88
2022-12-31T13:56:32.243Z,2.42
2022-12-31T13:59:07.037Z,1.83
2022-12-31T14:01:37.596Z,9.98
2022-12-31T14:04:16.581Z,8.07
2022-12-31T14:06:45.775Z,4.32
2022-12-31T14:09:21.137Z,6.30
2022-12-31T14:11:49.407Z,4.72
2022-12-31T14:14:35.237Z,6.22
2022-12-31T14:17:18.230Z,8.50
2022-12-31T14:19:57.939Z,5.97
2022-12-31T14:22:38.374Z,9.50
2022-12-31T14:25:15.774Z,17.20
2022-12-31T14:27:44.081Z,10.30
2022-12-31T14:30:21.990Z,15.88
2022-12-31T14:32:57.325Z,14.10
2022-12-31T14:35:44.697Z,7.35
2022-12-31T14:38:17.873Z,10.23
2022-12-31T14:40:45.161Z,10.70
2022-12-31T14:43:32.809Z,8.60
2022-12-31T14:46:19.160Z,11.25
2022-12-31T14:49:03.776Z,11.70
2022-12-31T14:51:32.155Z,8.50
2022-12-31T14:54:02.105Z,7.13
2022-12-31T14:56:45.501Z,12.20
2022-12-31T14:59:29.154Z,8.20
2022-12-31T15:01:58.859Z,7.43
2022-12-31T15:04:53.621Z,16.05
2022-12-31T15:07:31.870Z,9.88
2022-12-31T15:10:05.356Z,10.80
2022-12-31T15:12:53.741Z,10.05
2022-12-31T15:15:43.066Z,13.57
2022-12-31T15:18:28.140Z,11.20
2022-12-31T15:21:08.882Z,11.13
2022-12-31T15:23:42.341Z,7.18
2022-12-31T15:26:20.888Z,8.35
2022-12-31T15:28:56.992Z,6.25
2022-12-31T15:31:25.586Z,11.05
2022-12-31T15:34:24.859Z,8.43
2022-12-31T15:36:54.712Z,8.05
2022-12-31T15:39:26.891Z,6.68
2022-12-31T15:45:06.764Z,10.20
2022-12-31T15:48:03.475Z,14.45
2022-12-31T15:50:31.157Z,12.07
2022-12-31T15:53:00.795Z,10.00
2022-12-31T15:55:31.496Z,6.82
2022-12-31T15:58:05.072Z,8.05
2022-12-31T16:00:47.899Z,9.93
2022-12-31T16:03:27.006Z,7.28
2022-12-31T16:06:01.251Z,8.23
2022-12-31T16:08:30.749Z,5.38
2022-12-31T16:11:00.640Z,13.80
2022-12-31T16:13:29.298Z,11.45
2022-12-31T16:16:20.971Z,9.68
2022-12-31T16:18:50.213Z,7.03
2022-12-31T16:21:34.137Z,14.85
2022-12-31T16:24:06.105Z,6.13
2022-12-31T16:26:37.659Z,15.25
2022-12-31T16:29:06.869Z,9.00
2022-12-31T16:31:37.372Z,11.07
2022-12-31T16:34:26.212Z,13.35
2022-12-31T16:37:07.251Z,5.75
2022-12-31T16:39:36.213Z,15.00
2022-12-31T16:42:18.012Z,11.82
2022-12-31T16:44:47.118Z,15.48
2022-12-31T16:47:23.335Z,8.63
2022-12-31T16:50:13.851Z,5.72
2022-12-31T16:52:59.718Z,15.73
2022-12-31T16:55:35.616Z,4.53
2022-12-31T16:58:12.847Z,7.88
2022-12-31T17:00:44.117Z,7.03
2022-12-31T17:03:15.509Z,6.07
2022-12-31T17:05:57.291Z,11.52
2022-12-31T17:08:42.855Z,5.00
2022-12-31T17:11:23.601Z,11.43
2022-12-31T17:14:10.309Z,11.38
2022-12-31T17:17:02.266Z,9.65
2022-12-31T17:19:48.147Z,7.63
2022-12-31T17:22:30.716Z,6.18
2022-12-31T17:25:05.877Z,5.85
2022-12-31T17:27:33.398Z,8.93
2022-12-31T17:30:26.520Z,10.45
2022-12-31T17:33:06.046Z,7.85
2022-12-31T17:35:37.575Z,8.20
2022-12-31T17:38:23.510Z,7.70
2022-12-31T17:40:52.515Z,7.45
2022-12-31T17:43:21.059Z,5.00
2022-12-31T17:45:48.775Z,20.20
2022-12-31T17:48:17.450Z,13.48
2022-12-31T17:50:51.999Z,15.35
2022-12-31T17:53:19.220Z,16.90
2022-12-31T17:55:47.645Z,12.35
2022-12-31T17:58:23.518Z,14.13
2022-12-31T18:00:55.842Z,39.90
2022-12-31T18:03:24.256Z,32.63
2022-12-31T18:05:53.521Z,15.13
2022-12-31T18:08:21.777Z,9.13
2022-12-31T18:10:50.728Z,26.27
2022-12-31T18:13:19.563Z,13.88
2022-12-31T18:15:47.274Z,11.32
2022-12-31T18:18:24.795Z,17.67
2022-12-31T18:20:58.279Z,12.23
2022-12-31T18:23:29.885Z,38.97
2022-12-31T18:25:59.059Z,19.52
2022-12-31T18:28:26.221Z,22.80
2022-12-31T18:30:53.786Z,43.35
2022-12-31T18:33:23.806Z,26.10
2022-12-31T18:36:10.226Z,26.42
2022-12-31T18:38:37.750Z,18.73
2022-12-31T18:41:05.134Z,14.95
2022-12-31T18:43:33.366Z,12.80
2022-12-31T18:46:00.730Z,17.83
2022-12-31T18:48:30.243Z,22.25
2022-12-31T18:50:57.596Z,48.33
2022-12-31T18:53:24.940Z,19.02
2022-12-31T18:55:56.579Z,16.60
2022-12-31T18:58:25.069Z,14.00
2022-12-31T19:00:52.383Z,13.13
2022-12-31T19:03:21.725Z,41.22
2022-12-31T19:05:50.992Z,17.77
2022-12-31T19:08:18.973Z,10.85
2022-12-31T19:10:51.163Z,9.23
2022-12-31T19:13:19.746Z,6.50
2022-12-31T19:16:03.413Z,10.57
2022-12-31T19:18:44.196Z,12.40
2022-12-31T19:21:16.588Z,12.48
2022-12-31T19:23:52.324Z,10.38
2022-12-31T19:26:25.799Z,11.02
2022-12-31T19:28:53.073Z,7.97
2022-12-31T19:31:21.368Z,4.88
2022-12-31T19:33:48.656Z,8.20
2022-12-31T19:36:21.198Z,7.82
2022-12-31T19:38:54.849Z,9.30
2022-12-31T19:41:23.148Z,10.60
2022-12-31T19:44:05.835Z,8.80
2022-12-31T19:46:35.328Z,9.52
2022-12-31T19:49:02.827Z,10.13
2022-12-31T19:51:30.565Z,9.35
2022-12-31T19:53:58.180Z,8.68
2022-12-31T19:56:27.596Z,6.75
2022-12-31T19:58:59.529Z,4.88
2022-12-31T20:01:35.165Z,11.15
2022-12-31T20:04:03.661Z,12.20
2022-12-31T20:06:31.949Z,10.52
2022-12-31T20:08:59.107Z,19.70
2022-12-31T20:11:34.107Z,12.45
2022-12-31T20:14:01.665Z,10.57
2022-12-31T20:16:33.801Z,8.27
2022-12-31T20:19:03.539Z,15.15
2022-12-31T20:21:30.779Z,9.23
2022-12-31T20:23:58.060Z,14.15
2022-12-31T20:26:25.872Z,18.88
2022-12-31T20:28:53.508Z,7.38
2022-12-31T20:31:23.979Z,11.23
2022-12-31T20:33:54.179Z,16.13
2022-12-31T20:36:21.626Z,9.73
2022-12-31T20:38:50.287Z,8.23
2022-12-31T20:41:20.577Z,7.68
2022-12-31T20:43:48.910Z,5.93
2022-12-31T20:46:21.625Z,8.15
2022-12-31T20:48:49.911Z,12.52
2022-12-31T20:51:24.640Z,11.10
2022-12-31T20:53:57.407Z,9.20
2022-12-31T20:56:26.903Z,13.00
2022-12-31T20:58:54.281Z,6.95
2022-12-31T21:01:22.898Z,7.65
2022-12-31T21:04:08.608Z,12.25
2022-12-31T21:06:36.600Z,11.52
2022-12-31T21:09:12.707Z,8.50
2022-12-31T21:12:04.238Z,15.15
2022-12-31T21:14:33.629Z,16.27
2022-12-31T21:17:05.175Z,11.50
2022-12-31T21:19:34.460Z,6.43
2022-12-31T21:22:01.812Z,10.93
2022-12-31T21:24:29.266Z,9.73
2022-12-31T21:26:57.029Z,11.38
2022-12-31T21:29:24.641Z,14.45
2022-12-31T21:31:58.509Z,10.35
2022-12-31T21:34:26.162Z,12.50
2022-12-31T21:36:54.665Z,12.45
2022-12-31T21:39:27.876Z,6.72
2022-12-31T21:41:57.812Z,7.15
2022-12-31T21:44:32.189Z,10.13
2022-12-31T21:47:40.922Z,9.05
2022-12-31T21:50:20.241Z,10.25
2022-12-31T21:52:48.417Z,8.13
2022-12-31T21:55:42.363Z,9.25
2022-12-31T21:58:27.740Z,19.95
2022-12-31T22:01:19.348Z,10.57
2022-12-31T22:03:46.681Z,8.57
2022-12-31T22:06:21.793Z,10.88
2022-12-31T22:08:55.430Z,8.23
2022-12-31T22:11:35.751Z,10.73
2022-12-31T22:14:03.112Z,10.77
2022-12-31T22:16:33.603Z,10.98
2022-12-31T22:19:03.153Z,12.15
2022-12-31T22:21:30.426Z,13.55
2022-12-31T22:24:03.188Z,8.30
2022-12-31T22:26:30.662Z,22.13
2022-12-31T22:28:59.873Z,8.07
2022-12-31T22:31:30.223Z,10.13
2022-12-31T22:34:00.178Z,7.10
2022-12-31T22:36:29.827Z,10.52
2022-12-31T22:38:58.942Z,9.38
2022-12-31T22:41:35.461Z,15.75
2022-12-31T22:44:05.110Z,15.77
2022-12-31T22:46:33.863Z,12.82
2022-12-31T22:49:01.760Z,8.13
2022-12-31T22:51:57.254Z,11.13
2022-12-31T22:54:24.581Z,17.52
2022-12-31T22:56:58.139Z,6.22
2022-12-31T22:59:26.907Z,10.40
2022-12-31T23:01:56.301Z,12.80
2022-12-31T23:04:34.564Z,10.70
2022-12-31T23:07:04.267Z,11.23
2022-12-31T23:09:50.817Z,7.70
2022-12-31T23:12:18.800Z,13.23
2022-12-31T23:15:05.369Z,21.15
2022-12-31T23:17:51.668Z,13.27
2022-12-31T23:20:40.985Z,18.40
2022-12-31T23:23:10.259Z,27.83
2022-12-31T23:25:42.045Z,14.00
2022-12-31T23:28:20.602Z,18.00
2022-12-31T23:30:49.086Z,14.80
2022-12-31T23:33:18.668Z,19.02
2022-12-31T23:35:46.516Z,13.82
2022-12-31T23:38:16.724Z,19.67
2022-12-31T23:40:44.345Z,12.70
2022-12-31T23:43:19.782Z,15.05
2022-12-31T23:45:53.450Z,17.42
2022-12-31T23:48:20.645Z,15.85
2022-12-31T23:51:03.411Z,19.10
2022-12-31T23:53:33.099Z,19.38
2022-12-31T23:56:17.666Z,17.50
2022-12-31T23:58:55.188Z,25.55
